Time;durP1;ratioP1;P1;durP2;ratioP2;P2;SDS_P1;SDS_P2;PMS_P1;PMS_P2;Temp;Humidity;BMP_temperature;BMP_pressure;BME280_temperature;BME280_humidity;BME280_pressure;Samples;Min_cycle;Max_cycle;Signal;HPM_P1;HPM_P2
2022/01/12 00:01:10;;;;;;;11.70;6.40;;;;;;;1.09;nan;-23845.88;5052020;28;20179;-77
2022/01/12 00:03:35;;;;;;;12.47;5.83;;;;;;;0.95;nan;-23841.88;5033874;28;20186;-76
2022/01/12 00:06:02;;;;;;;10.47;5.93;;;;;;;1.07;nan;-23845.31;5033947;28;20766;-77
2022/01/12 00:08:28;;;;;;;9.17;5.63;;;;;;;1.41;nan;-23854.88;5034047;28;20634;-77
2022/01/12 00:10:56;;;;;;;11.27;6.00;;;;;;;1.44;nan;-23855.75;5051710;28;20177;-76
2022/01/12 00:13:22;;;;;;;10.23;6.30;;;;;;;1.18;nan;-23848.59;5050469;28;20205;-75
2022/01/12 00:15:47;;;;;;;9.70;5.87;;;;;;;1.30;nan;-23852.03;5033705;28;20551;-76
2022/01/12 00:18:12;;;;;;;10.23;6.60;;;;;;;0.97;nan;-23842.44;5051831;28;20166;-76
2022/01/12 00:20:38;;;;;;;9.93;6.30;;;;;;;1.53;nan;-23858.44;5051914;28;20197;-76
2022/01/12 00:23:03;;;;;;;8.87;5.80;;;;;;;0.98;nan;-23842.72;5051762;28;20182;-77
2022/01/12 00:25:32;;;;;;;8.80;6.17;;;;;;;1.36;nan;-23853.44;5033900;28;20175;-77
2022/01/12 00:33:26;;;;;;;11.13;6.60;;;;;;;1.36;nan;-23853.59;5049509;28;20213;-77
2022/01/12 00:35:54;;;;;;;10.43;6.17;;;;;;;1.56;nan;-23859.31;5055602;28;20171;-77
2022/01/12 00:38:23;;;;;;;11.77;6.53;;;;;;;1.07;nan;-23845.31;5054164;28;20182;-77
2022/01/12 00:40:50;;;;;;;12.30;6.50;;;;;;;1.36;nan;-23853.59;5055849;28;20186;-77
2022/01/12 00:43:18;;;;;;;11.97;7.20;;;;;;;1.05;nan;-23844.88;5055781;28;20174;-77
2022/01/12 00:45:47;;;;;;;11.90;6.90;;;;;;;1.40;nan;-23854.59;5037914;28;20206;-77
2022/01/12 00:48:14;;;;;;;12.30;7.00;;;;;;;1.54;nan;-23858.75;5037606;28;20179;-77
2022/01/12 00:50:40;;;;;;;13.80;7.17;;;;;;;1.53;nan;-23858.44;5055906;28;20545;-76
2022/01/12 00:53:06;;;;;;;12.27;6.87;;;;;;;0.97;nan;-23842.44;5037353;28;20258;-77
2022/01/12 00:55:33;;;;;;;9.10;5.97;;;;;;;0.96;nan;-23842.16;5050770;28;20175;-76
2022/01/12 00:57:59;;;;;;;13.90;7.27;;;;;;;1.35;nan;-23853.31;5021943;28;20193;-76
2022/01/12 01:00:26;;;;;;;11.67;7.17;;;;;;;1.40;nan;-23854.75;5048165;28;20204;-76
2022/01/12 01:02:53;;;;;;;13.60;7.20;;;;;;;0.98;nan;-23842.88;5037166;28;20240;-76
2022/01/12 01:05:21;;;;;;;15.47;7.77;;;;;;;1.18;nan;-23848.44;5055201;28;20543;-76
2022/01/12 01:07:47;;;;;;;12.27;7.13;;;;;;;1.18;nan;-23848.59;5049207;28;20632;-76
2022/01/12 01:10:19;;;;;;;14.97;7.47;;;;;;;1.39;nan;-23854.44;5054515;28;20182;-77
2022/01/12 01:12:46;;;;;;;14.70;7.50;;;;;;;1.43;nan;-23855.47;5037028;28;20253;-76
2022/01/12 01:15:15;;;;;;;11.53;6.90;;;;;;;0.92;nan;-23841.00;5054965;28;20161;-77
2022/01/12 01:25:39;;;;;;;11.03;6.63;;;;;;;0.88;nan;-23840.16;5054510;28;20169;-76
2022/01/12 01:28:06;;;;;;;11.40;6.37;;;;;;;1.15;nan;-23847.75;5054232;28;20178;-75
2022/01/12 01:30:35;;;;;;;11.10;6.63;;;;;;;0.77;nan;-23836.88;5052637;28;20273;-75
2022/01/12 01:33:05;;;;;;;12.20;6.20;;;;;;;0.72;nan;-23835.44;5054346;28;20203;-77
2022/01/12 01:35:33;;;;;;;9.30;5.97;;;;;;;0.96;nan;-23842.16;5036402;28;20235;-77
2022/01/12 01:38:02;;;;;;;10.20;5.87;;;;;;;1.11;nan;-23846.44;5054295;28;20190;-76
2022/01/12 01:40:33;;;;;;;10.50;6.13;;;;;;;0.80;nan;-23837.72;5036263;28;20170;-76
2022/01/12 01:53:44;;;;;;;11.33;6.33;;;;;;;0.82;nan;-23838.44;5053527;28;20218;-76
2022/01/12 01:56:10;;;;;;;10.13;6.20;;;;;;;0.72;nan;-23835.56;5035835;28;20194;-76
2022/01/12 01:58:35;;;;;;;12.00;6.90;;;;;;;1.02;nan;-23843.88;5053492;28;20245;-76
2022/01/12 02:01:02;;;;;;;12.87;6.67;;;;;;;0.44;nan;-23827.72;5054034;28;20603;-76
2022/01/12 02:03:29;;;;;;;10.83;7.03;;;;;;;0.58;nan;-23831.56;5053665;28;20177;-76
2022/01/12 02:05:55;;;;;;;11.80;6.70;;;;;;;0.97;nan;-23842.44;5052066;28;20217;-76
2022/01/12 02:08:20;;;;;;;10.70;6.50;;;;;;;0.95;nan;-23841.88;5052234;28;20199;-77
2022/01/12 02:10:46;;;;;;;14.17;8.03;;;;;;;0.60;nan;-23832.00;5053552;28;20182;-75
2022/01/12 02:13:11;;;;;;;12.27;7.47;;;;;;;0.74;nan;-23836.16;5053573;28;20207;-76
2022/01/12 02:15:39;;;;;;;13.00;7.43;;;;;;;1.22;nan;-23849.72;5035426;28;20691;-76
2022/01/12 02:40:07;;;;;;;12.93;7.07;;;;;;;0.79;nan;-23837.56;5053331;28;20180;-75
2022/01/12 02:42:33;;;;;;;13.77;7.20;;;;;;;1.31;nan;-23852.31;5052669;28;20177;-76
2022/01/12 02:55:51;;;;;;;13.50;7.93;;;;;;;1.08;nan;-23845.72;5053884;28;20233;-76
2022/01/12 02:58:16;;;;;;;12.90;7.77;;;;;;;0.82;nan;-23838.44;5034013;28;20188;-76
2022/01/12 03:01:20;;;;;;;12.50;7.83;;;;;;;0.97;nan;-23842.59;5053011;28;20180;-76
2022/01/12 03:03:31;;;;;;;14.10;7.47;;;;;;;0.95;nan;-23842.00;5032115;28;20205;-77
2022/01/12 03:06:00;;;;;;;12.43;7.70;;;;;;;1.01;nan;-23843.59;5020735;28;20697;-75
2022/01/12 03:08:27;;;;;;;13.80;7.57;;;;;;;0.84;nan;-23838.88;5052861;28;20263;-76
2022/01/12 03:10:54;;;;;;;13.83;8.20;;;;;;;0.74;nan;-23836.00;5034631;28;20251;-77
2022/01/12 03:13:20;;;;;;;13.93;7.43;;;;;;;0.99;nan;-23843.00;5034745;28;20577;-76
2022/01/12 03:15:47;;;;;;;12.57;7.67;;;;;;;0.81;nan;-23838.16;5034856;28;20181;-76
2022/01/12 03:18:14;;;;;;;12.87;7.47;;;;;;;0.70;nan;-23835.00;5052621;28;20251;-77
2022/01/12 03:20:40;;;;;;;16.40;8.30;;;;;;;0.86;nan;-23839.44;5051116;28;20184;-76
2022/01/12 03:23:06;;;;;;;12.93;7.63;;;;;;;0.54;nan;-23830.28;5052722;28;20170;-77
2022/01/12 03:25:31;;;;;;;12.60;7.43;;;;;;;0.76;nan;-23836.56;5052581;28;20174;-76
2022/01/12 03:28:01;;;;;;;13.50;7.63;;;;;;;0.84;nan;-23839.00;5052685;28;20207;-77
2022/01/12 03:30:34;;;;;;;14.37;7.33;;;;;;;0.27;nan;-23822.69;5052382;28;20249;-76
2022/01/12 03:33:32;;;;;;;12.70;6.97;;;;;;;0.60;nan;-23832.13;5034481;28;20645;-77
2022/01/12 04:08:55;;;;;;;14.53;8.50;;;;;;;0.40;nan;-23826.41;5051199;28;20733;-77
2022/01/12 04:11:21;;;;;;;12.93;7.43;;;;;;;-0.03;nan;-23814.25;5051720;28;20171;-76
2022/01/12 04:13:49;;;;;;;13.13;7.80;;;;;;;0.04;nan;-23816.25;5040683;28;20578;-75
2022/01/12 04:16:16;;;;;;;12.07;7.47;;;;;;;0.50;nan;-23829.28;5041809;28;20263;-76
2022/01/12 04:18:42;;;;;;;14.27;8.50;;;;;;;0.23;nan;-23821.56;5037117;28;20246;-76
2022/01/12 04:21:09;;;;;;;12.60;8.17;;;;;;;0.11;nan;-23818.13;5031364;28;20205;-77
2022/01/12 04:23:37;;;;;;;13.03;7.57;;;;;;;0.44;nan;-23827.56;5038008;28;20324;-78
2022/01/12 04:26:09;;;;;;;14.43;8.03;;;;;;;0.57;nan;-23831.13;5039906;28;20681;-78
2022/01/12 04:28:38;;;;;;;13.93;8.47;;;;;;;0.35;nan;-23825.00;5032843;28;20181;-76
2022/01/12 04:31:04;;;;;;;15.37;8.37;;;;;;;0.40;nan;-23826.41;5031118;28;20257;-76
2022/01/12 04:33:30;;;;;;;14.60;7.97;;;;;;;0.45;nan;-23827.84;5026924;28;20346;-76
2022/01/12 04:35:56;;;;;;;13.17;7.40;;;;;;;0.44;nan;-23827.72;5045549;28;20173;-76
2022/01/12 04:38:25;;;;;;;14.17;8.03;;;;;;;0.63;nan;-23833.00;5039688;28;20193;-77
2022/01/12 04:40:51;;;;;;;14.23;7.87;;;;;;;0.49;nan;-23828.84;5025506;28;20182;-77
2022/01/12 04:43:18;;;;;;;14.70;8.10;;;;;;;0.66;nan;-23833.72;5036480;28;20211;-76
2022/01/12 04:50:50;;;;;;;14.47;7.67;;;;;;;0.59;nan;-23831.72;5050303;28;20193;-76
2022/01/12 04:53:17;;;;;;;15.33;8.53;;;;;;;0.66;nan;-23833.84;5047397;28;20230;-77
2022/01/12 04:55:43;;;;;;;15.23;7.80;;;;;;;0.58;nan;-23831.56;5048757;28;20192;-78
2022/01/12 04:58:09;;;;;;;14.53;7.90;;;;;;;0.60;nan;-23832.13;5044379;28;20186;-77
2022/01/12 05:00:37;;;;;;;14.03;7.87;;;;;;;0.23;nan;-23821.69;5039451;28;20234;-78
2022/01/12 05:13:43;;;;;;;14.93;8.20;;;;;;;0.62;nan;-23832.72;5047862;28;20637;-77
2022/01/12 05:16:12;;;;;;;15.50;7.93;;;;;;;0.80;nan;-23837.72;5037628;28;20190;-75
2022/01/12 05:18:39;;;;;;;11.80;7.70;;;;;;;0.80;nan;-23837.88;5046476;28;20195;-78
2022/01/12 05:21:05;;;;;;;12.53;7.70;;;;;;;0.58;nan;-23831.44;5053174;28;20189;-78
2022/01/12 05:23:31;;;;;;;13.30;8.27;;;;;;;0.81;nan;-23838.16;5053826;28;20182;-78
2022/01/12 05:25:58;;;;;;;14.97;8.83;;;;;;;0.28;nan;-23823.13;5036194;28;20200;-79
2022/01/12 05:28:24;;;;;;;16.37;8.63;;;;;;;0.45;nan;-23827.84;5035535;28;20212;-78
2022/01/12 05:30:51;;;;;;;16.20;8.60;;;;;;;0.57;nan;-23831.13;5045896;28;20610;-77
2022/01/12 05:33:17;;;;;;;14.83;8.30;;;;;;;0.56;nan;-23831.00;5054220;28;20666;-76
2022/01/12 05:35:44;;;;;;;14.50;8.10;;;;;;;0.12;nan;-23818.53;5054309;28;20576;-77
2022/01/12 05:38:12;;;;;;;14.77;7.87;;;;;;;0.47;nan;-23828.41;5035985;28;20229;-77
2022/01/12 05:40:39;;;;;;;13.23;8.00;;;;;;;0.04;nan;-23816.25;5052487;28;20271;-76
2022/01/12 05:43:05;;;;;;;14.20;8.17;;;;;;;0.08;nan;-23817.41;5054192;28;20174;-78
2022/01/12 05:45:33;;;;;;;13.97;7.60;;;;;;;0.43;nan;-23827.41;5054343;28;20166;-76
2022/01/12 05:50:26;;;;;;;12.47;7.73;;;;;;;0.14;nan;-23818.97;5053903;28;20265;-76
2022/01/12 05:52:51;;;;;;;13.73;7.97;;;;;;;0.57;nan;-23831.28;5053442;28;20230;-76
2022/01/12 05:55:17;;;;;;;13.07;7.53;;;;;;;0.18;nan;-23820.25;5053501;28;20182;-77
2022/01/12 05:57:43;;;;;;;15.30;8.07;;;;;;;0.60;nan;-23832.13;5053422;28;20175;-75
2022/01/12 06:00:13;;;;;;;16.50;8.87;;;;;;;0.40;nan;-23826.41;5053288;28;20169;-75
2022/01/12 06:02:39;;;;;;;14.87;8.30;;;;;;;0.58;nan;-23831.56;5053332;28;20180;-76
2022/01/12 06:05:05;;;;;;;14.40;7.93;;;;;;;0.10;nan;-23817.97;5034905;28;20634;-75
2022/01/12 06:07:30;;;;;;;13.30;7.70;;;;;;;0.54;nan;-23830.28;5053209;28;20213;-76
2022/01/12 06:09:56;;;;;;;16.80;8.27;;;;;;;0.35;nan;-23825.00;5035105;28;20654;-75
2022/01/12 06:12:22;;;;;;;14.57;8.00;;;;;;;0.09;nan;-23817.69;5051616;28;20202;-77
2022/01/12 06:14:47;;;;;;;13.67;8.20;;;;;;;0.28;nan;-23822.97;5034936;28;20177;-76
2022/01/12 06:17:13;;;;;;;16.13;8.73;;;;;;;0.38;nan;-23825.84;5052299;28;20813;-76
2022/01/12 06:19:40;;;;;;;12.83;7.77;;;;;;;0.20;nan;-23820.69;5034933;28;20170;-77
2022/01/12 06:22:06;;;;;;;13.90;7.83;;;;;;;0.02;nan;-23815.53;5035068;28;20164;-76
2022/01/12 06:24:32;;;;;;;16.83;8.60;;;;;;;-0.14;nan;-23811.09;5053036;28;20224;-75
2022/01/12 06:26:59;;;;;;;17.17;8.57;;;;;;;0.25;nan;-23822.13;5052743;28;20283;-76
2022/01/12 06:29:40;;;;;;;17.03;8.33;;;;;;;0.05;nan;-23816.53;5052961;28;20231;-76
2022/01/12 06:32:06;;;;;;;14.30;8.23;;;;;;;0.28;nan;-23823.13;5052720;28;20510;-76
2022/01/12 06:34:32;;;;;;;12.03;7.63;;;;;;;0.13;nan;-23818.84;5052803;28;20213;-76
2022/01/12 06:36:57;;;;;;;13.77;8.07;;;;;;;0.39;nan;-23826.13;5034971;28;20585;-77
2022/01/12 06:39:23;;;;;;;12.67;7.83;;;;;;;0.05;nan;-23816.53;5051335;28;20672;-78
2022/01/12 06:41:52;;;;;;;15.03;8.57;;;;;;;0.22;nan;-23821.41;5034373;28;20272;-75
2022/01/12 06:44:20;;;;;;;12.13;7.53;;;;;;;0.38;nan;-23825.84;5052684;28;20174;-77
2022/01/12 06:46:47;;;;;;;14.57;7.93;;;;;;;-0.11;nan;-23812.09;5052529;28;20178;-77
2022/01/12 06:49:13;;;;;;;13.97;8.43;;;;;;;-0.01;nan;-23814.97;5051094;28;20609;-76
2022/01/12 06:51:39;;;;;;;12.03;8.23;;;;;;;0.35;nan;-23825.13;5034177;28;20297;-77
2022/01/12 06:54:05;;;;;;;11.47;7.23;;;;;;;0.04;nan;-23816.25;5051837;28;20173;-76
2022/01/12 06:56:31;;;;;;;15.20;8.17;;;;;;;0.24;nan;-23821.84;5052229;28;20257;-75
2022/01/12 06:58:56;;;;;;;14.03;8.13;;;;;;;0.43;nan;-23827.41;5051028;28;20264;-80
2022/01/12 07:01:22;;;;;;;14.00;8.50;;;;;;;0.38;nan;-23825.84;5051104;28;20236;-76
2022/01/12 07:03:49;;;;;;;16.07;8.67;;;;;;;0.20;nan;-23820.84;5052308;28;20174;-77
2022/01/12 07:06:15;;;;;;;15.33;8.70;;;;;;;0.51;nan;-23829.44;5034551;28;20217;-75
2022/01/12 07:08:40;;;;;;;14.87;8.50;;;;;;;0.72;nan;-23835.44;5052246;28;20275;-76
2022/01/12 07:11:05;;;;;;;15.03;9.20;;;;;;;0.53;nan;-23830.13;5033204;28;20174;-76
2022/01/12 07:13:31;;;;;;;13.17;8.10;;;;;;;0.41;nan;-23826.72;5051941;28;20225;-76
2022/01/12 07:15:57;;;;;;;13.80;8.07;;;;;;;0.52;nan;-23829.84;5052266;28;20651;-76
2022/01/12 07:18:25;;;;;;;14.13;8.20;;;;;;;0.74;nan;-23836.00;5052196;28;20201;-75
2022/01/12 07:20:50;;;;;;;14.83;8.33;;;;;;;0.00;nan;-23815.09;5034016;28;20593;-76
2022/01/12 07:23:16;;;;;;;19.00;8.43;;;;;;;0.56;nan;-23831.00;5052193;28;20178;-76
2022/01/12 07:25:41;;;;;;;12.93;7.87;;;;;;;0.40;nan;-23826.56;5034027;28;20541;-76
2022/01/12 07:28:07;;;;;;;16.00;8.63;;;;;;;0.53;nan;-23830.13;5052294;28;20185;-76
2022/01/12 07:30:32;;;;;;;16.60;7.70;;;;;;;0.54;nan;-23830.44;5052278;28;20186;-75
2022/01/12 07:32:58;;;;;;;13.73;7.77;;;;;;;0.25;nan;-23822.13;5052006;28;20259;-76
2022/01/12 07:35:24;;;;;;;12.10;7.47;;;;;;;0.50;nan;-23829.13;5052032;28;20182;-75
2022/01/12 07:37:50;;;;;;;12.63;7.63;;;;;;;0.37;nan;-23825.69;5051736;28;20644;-76
2022/01/12 07:40:16;;;;;;;15.37;7.23;;;;;;;0.33;nan;-23824.41;5051989;28;20667;-76
2022/01/12 07:42:42;;;;;;;12.00;7.20;;;;;;;0.32;nan;-23824.13;5041757;28;20174;-76
2022/01/12 07:45:07;;;;;;;12.93;7.10;;;;;;;0.56;nan;-23831.00;5049134;28;20178;-76
2022/01/12 07:47:33;;;;;;;13.73;7.90;;;;;;;0.31;nan;-23823.84;5051533;28;20189;-76
2022/01/12 07:50:00;;;;;;;13.10;7.10;;;;;;;0.24;nan;-23821.84;5052005;28;20273;-76
2022/01/12 07:52:27;;;;;;;12.60;7.73;;;;;;;0.39;nan;-23826.28;5033102;28;20226;-76
2022/01/12 07:54:52;;;;;;;11.57;6.80;;;;;;;0.40;nan;-23826.56;5033361;28;20194;-76
2022/01/12 07:57:18;;;;;;;13.43;7.63;;;;;;;-0.41;nan;-23803.50;5051383;28;20669;-76
2022/01/12 07:59:44;;;;;;;12.83;7.60;;;;;;;0.49;nan;-23829.00;5050373;28;20189;-76
2022/01/12 08:02:10;;;;;;;11.80;7.13;;;;;;;0.58;nan;-23831.44;5045506;28;20489;-76
2022/01/12 08:04:37;;;;;;;12.83;6.97;;;;;;;0.48;nan;-23828.72;5048513;28;20177;-76
2022/01/12 08:07:03;;;;;;;13.53;7.90;;;;;;;0.07;nan;-23817.13;5046685;28;20276;-76
2022/01/12 08:09:29;;;;;;;11.60;6.93;;;;;;;0.40;nan;-23826.41;5051397;28;20648;-77
2022/01/12 08:11:55;;;;;;;14.30;7.80;;;;;;;0.62;nan;-23832.72;5051209;28;20239;-76
2022/01/12 08:14:20;;;;;;;14.53;7.87;;;;;;;0.58;nan;-23831.56;5051114;28;20224;-77
2022/01/12 08:16:45;;;;;;;14.33;7.23;;;;;;;0.14;nan;-23818.97;5051570;28;20174;-76
2022/01/12 08:19:11;;;;;;;12.87;7.60;;;;;;;0.25;nan;-23822.13;5051212;28;20586;-76
2022/01/12 08:21:36;;;;;;;13.40;7.47;;;;;;;0.68;nan;-23834.44;5033406;28;20182;-76
2022/01/12 08:24:02;;;;;;;14.30;7.80;;;;;;;0.62;nan;-23832.72;5033258;28;20192;-76
2022/01/12 08:26:27;;;;;;;13.23;7.30;;;;;;;0.82;nan;-23838.44;5051373;28;20203;-76
2022/01/12 08:28:53;;;;;;;13.13;7.27;;;;;;;0.67;nan;-23834.00;5033202;28;20505;-76
2022/01/12 08:31:20;;;;;;;14.57;8.07;;;;;;;0.42;nan;-23827.13;5050998;28;20189;-76
2022/01/12 08:33:47;;;;;;;16.30;8.40;;;;;;;1.02;nan;-23844.00;5051515;28;20736;-76
2022/01/12 08:36:13;;;;;;;12.97;6.83;;;;;;;0.62;nan;-23832.72;5051163;28;20611;-76
2022/01/12 08:38:38;;;;;;;13.87;7.00;;;;;;;1.10;nan;-23846.16;5050750;28;20255;-76
2022/01/12 08:41:04;;;;;;;10.90;6.60;;;;;;;1.20;nan;-23849.16;5051066;28;20261;-77
2022/01/12 08:43:29;;;;;;;12.20;6.83;;;;;;;0.47;nan;-23828.28;5033073;28;20276;-76
2022/01/12 08:45:55;;;;;;;14.27;7.13;;;;;;;1.25;nan;-23850.44;5050889;28;20170;-76
2022/01/12 08:48:21;;;;;;;14.37;7.40;;;;;;;1.12;nan;-23846.72;5033409;28;20525;-76
2022/01/12 08:50:47;;;;;;;15.47;7.73;;;;;;;1.24;nan;-23850.31;5050944;28;20638;-76
2022/01/12 08:53:14;;;;;;;14.00;7.60;;;;;;;0.69;nan;-23834.72;5032599;28;20234;-76
2022/01/12 08:55:40;;;;;;;15.10;7.53;;;;;;;1.40;nan;-23854.75;5034466;28;20611;-76
2022/01/12 08:58:05;;;;;;;14.03;7.40;;;;;;;1.12;nan;-23846.88;5054719;28;20645;-76
2022/01/12 09:00:31;;;;;;;14.00;7.93;;;;;;;0.72;nan;-23835.44;5054843;28;20185;-76
2022/01/12 09:02:56;;;;;;;11.87;7.20;;;;;;;0.68;nan;-23834.44;5054827;28;20190;-76
2022/01/12 09:05:22;;;;;;;12.20;7.40;;;;;;;1.36;nan;-23853.59;5055115;28;20183;-76
2022/01/12 09:07:48;;;;;;;11.57;7.00;;;;;;;0.99;nan;-23843.16;5053801;28;20312;-76
2022/01/12 09:10:14;;;;;;;13.40;7.63;;;;;;;1.12;nan;-23846.72;5050510;28;20271;-76
2022/01/12 09:12:39;;;;;;;12.57;6.90;;;;;;;1.10;nan;-23846.16;5054987;28;20240;-76
2022/01/12 09:15:13;;;;;;;13.40;7.30;;;;;;;1.18;nan;-23848.44;5055068;28;20780;-76
2022/01/12 09:17:39;;;;;;;17.03;7.53;;;;;;;1.22;nan;-23849.59;5053457;28;20667;-76
2022/01/12 09:20:06;;;;;;;16.07;7.30;;;;;;;0.72;nan;-23835.56;5054277;28;20645;-76
2022/01/12 09:22:31;;;;;;;13.03;7.53;;;;;;;1.24;nan;-23850.16;5036314;28;20183;-77
2022/01/12 09:24:57;;;;;;;14.13;8.27;;;;;;;1.52;nan;-23858.03;5055052;28;20182;-76
2022/01/12 09:27:22;;;;;;;12.60;6.67;;;;;;;1.09;nan;-23845.88;5054638;28;20178;-76
2022/01/12 09:29:48;;;;;;;13.47;7.23;;;;;;;1.29;nan;-23851.75;5054766;28;20175;-76
2022/01/12 09:32:14;;;;;;;14.13;7.33;;;;;;;0.91;nan;-23840.88;5054391;28;20686;-76
2022/01/12 09:34:39;;;;;;;14.00;7.27;;;;;;;1.15;nan;-23847.75;5054285;28;20257;-76
2022/01/12 09:37:05;;;;;;;13.97;7.83;;;;;;;0.95;nan;-23842.00;5053513;28;20179;-76
2022/01/12 09:39:31;;;;;;;13.63;6.97;;;;;;;1.63;nan;-23861.31;5047937;28;20193;-76
2022/01/12 09:41:59;;;;;;;13.73;7.60;;;;;;;1.61;nan;-23860.59;5054067;28;20178;-75
2022/01/12 09:44:32;;;;;;;13.13;7.60;;;;;;;1.15;nan;-23847.75;5052932;28;20638;-76
2022/01/12 09:46:59;;;;;;;13.70;7.27;;;;;;;1.03;nan;-23844.16;5035860;28;20278;-76
2022/01/12 09:49:24;;;;;;;16.27;8.33;;;;;;;1.12;nan;-23846.88;5053834;28;20566;-77
2022/01/12 09:51:51;;;;;;;13.70;7.70;;;;;;;1.48;nan;-23857.03;5053606;28;20210;-76
2022/01/12 09:54:18;;;;;;;12.83;7.10;;;;;;;1.54;nan;-23858.59;5035748;28;20297;-76
2022/01/12 09:56:44;;;;;;;13.40;7.17;;;;;;;1.47;nan;-23856.75;5054399;28;20799;-76
2022/01/12 09:59:09;;;;;;;12.13;7.30;;;;;;;1.32;nan;-23852.59;5053979;28;20175;-76
2022/01/12 10:01:45;;;;;;;11.50;7.00;;;;;;;0.99;nan;-23843.00;5052926;28;20182;-76
2022/01/12 10:04:11;;;;;;;11.57;7.23;;;;;;;1.55;nan;-23859.03;5038470;28;20179;-76
2022/01/12 10:06:39;;;;;;;13.30;7.47;;;;;;;0.96;nan;-23842.16;5052157;28;20179;-76
2022/01/12 10:09:05;;;;;;;13.60;7.43;;;;;;;0.94;nan;-23841.72;5053219;28;20236;-77
2022/01/12 10:11:30;;;;;;;14.17;7.17;;;;;;;1.43;nan;-23855.47;5053376;28;20171;-77
2022/01/12 10:13:57;;;;;;;13.63;7.60;;;;;;;1.50;nan;-23857.59;5053935;28;20289;-78
2022/01/12 10:16:26;;;;;;;15.40;8.13;;;;;;;1.87;nan;-23868.03;5036452;28;20174;-77
2022/01/12 10:18:53;;;;;;;14.67;8.37;;;;;;;1.68;nan;-23862.75;5036057;28;20332;-78
2022/01/12 10:21:29;;;;;;;12.77;7.47;;;;;;;1.82;nan;-23866.47;5035251;28;20182;-76
2022/01/12 10:24:09;;;;;;;13.90;7.97;;;;;;;2.19;nan;-23877.16;5035211;28;20179;-77
2022/01/12 10:26:41;;;;;;;13.33;7.20;;;;;;;2.16;nan;-23876.16;5035184;28;20605;-77
2022/01/12 10:29:22;;;;;;;10.63;6.73;;;;;;;1.63;nan;-23861.16;5053024;28;20627;-77
2022/01/12 10:31:47;;;;;;;10.90;7.13;;;;;;;2.00;nan;-23871.59;5051777;28;20178;-77
2022/01/12 10:34:13;;;;;;;15.20;7.53;;;;;;;2.21;nan;-23877.59;5033879;28;20179;-77
2022/01/12 10:36:40;;;;;;;13.33;7.67;;;;;;;2.21;nan;-23877.75;5052971;28;20201;-77
2022/01/12 10:39:11;;;;;;;13.90;7.43;;;;;;;1.93;nan;-23869.75;5052866;28;20174;-75
2022/01/12 10:42:01;;;;;;;14.70;8.07;;;;;;;1.41;nan;-23854.88;5053310;28;20182;-75
2022/01/12 10:44:32;;;;;;;13.73;7.90;;;;;;;1.52;nan;-23858.03;5034070;28;20191;-76
2022/01/12 10:47:08;;;;;;;15.10;8.53;;;;;;;1.36;nan;-23853.44;5052835;28;20175;-77
2022/01/12 10:49:37;;;;;;;14.07;8.30;;;;;;;1.57;nan;-23859.47;5052790;28;20236;-75
2022/01/12 10:52:06;;;;;;;13.30;8.17;;;;;;;1.90;nan;-23868.88;5052450;28;20249;-76
2022/01/12 10:54:53;;;;;;;15.37;8.53;;;;;;;1.88;nan;-23868.16;5052916;28;20178;-76
2022/01/12 10:57:24;;;;;;;14.33;7.90;;;;;;;1.74;nan;-23864.47;5052169;28;20175;-76
2022/01/12 11:00:18;;;;;;;14.50;8.10;;;;;;;1.72;nan;-23863.88;5053234;28;20324;-77
2022/01/12 11:02:55;;;;;;;15.47;8.00;;;;;;;1.75;nan;-23864.75;5053055;28;20621;-76
2022/01/12 11:05:23;;;;;;;15.53;8.20;;;;;;;1.41;nan;-23855.03;5050853;28;20162;-77
2022/01/12 11:07:50;;;;;;;13.13;8.20;;;;;;;1.50;nan;-23857.47;5052114;28;20217;-77
2022/01/12 11:10:16;;;;;;;15.90;8.63;;;;;;;1.60;nan;-23860.31;5034039;28;20171;-75
2022/01/12 11:12:42;;;;;;;15.10;7.77;;;;;;;1.26;nan;-23850.72;5052826;28;20279;-74
2022/01/12 11:15:11;;;;;;;16.13;8.30;;;;;;;1.41;nan;-23854.88;5052762;28;20175;-76
2022/01/12 11:17:38;;;;;;;17.10;8.53;;;;;;;1.81;nan;-23866.31;5050382;28;20182;-76
2022/01/12 11:20:16;;;;;;;13.97;8.37;;;;;;;1.78;nan;-23865.47;5051547;28;20190;-76
2022/01/12 11:23:06;;;;;;;16.10;8.73;;;;;;;1.73;nan;-23864.03;5033632;28;20186;-76
2022/01/12 11:25:40;;;;;;;17.40;8.67;;;;;;;1.47;nan;-23856.75;5051112;28;20617;-74
2022/01/12 11:28:14;;;;;;;15.63;8.67;;;;;;;2.03;nan;-23872.47;5051663;28;20178;-77
2022/01/12 11:31:00;;;;;;;15.83;8.50;;;;;;;1.55;nan;-23859.03;5051496;28;20171;-77
2022/01/12 11:33:32;;;;;;;16.37;8.33;;;;;;;1.91;nan;-23869.03;5051801;28;20251;-77
2022/01/12 11:36:04;;;;;;;16.07;8.27;;;;;;;2.03;nan;-23872.47;5051070;28;20181;-76
2022/01/12 11:38:34;;;;;;;15.43;8.90;;;;;;;2.01;nan;-23871.88;5051586;28;20175;-75
2022/01/12 11:41:30;;;;;;;15.80;9.03;;;;;;;1.93;nan;-23869.59;5050901;28;20703;-75
2022/01/12 11:44:06;;;;;;;15.97;9.20;;;;;;;2.37;nan;-23882.03;5051099;28;20174;-74
2022/01/12 11:46:54;;;;;;;19.20;9.97;;;;;;;2.56;nan;-23887.44;5049255;28;20232;-76
2022/01/12 11:49:30;;;;;;;14.90;8.83;;;;;;;2.63;nan;-23889.59;5041027;28;20333;-76
2022/01/12 11:51:58;;;;;;;14.93;9.17;;;;;;;2.29;nan;-23879.88;5042939;28;20293;-75
2022/01/12 11:54:31;;;;;;;16.50;10.13;;;;;;;2.52;nan;-23886.31;5039587;28;20585;-75
2022/01/12 11:57:02;;;;;;;14.90;9.07;;;;;;;2.37;nan;-23882.03;5040872;28;20277;-75
2022/01/12 11:59:29;;;;;;;18.43;9.87;;;;;;;2.74;nan;-23892.44;5038381;28;20184;-75
2022/01/12 12:02:14;;;;;;;19.30;9.70;;;;;;;2.66;nan;-23890.31;5037878;28;20205;-74
2022/01/12 12:04:54;;;;;;;18.30;9.70;;;;;;;2.87;nan;-23896.28;5039916;28;20258;-76
2022/01/12 12:07:19;;;;;;;16.30;9.20;;;;;;;2.84;nan;-23895.28;5045354;28;20241;-74
2022/01/12 12:09:52;;;;;;;18.90;9.30;;;;;;;2.44;nan;-23884.03;5025707;28;20210;-75
2022/01/12 12:12:32;;;;;;;14.80;8.50;;;;;;;2.20;nan;-23877.31;5046505;28;20654;-75
2022/01/12 12:15:05;;;;;;;19.20;10.40;;;;;;;2.86;nan;-23895.88;5047823;28;20293;-76
2022/01/12 12:17:33;;;;;;;18.70;9.90;;;;;;;2.60;nan;-23888.72;5047387;28;20194;-76
2022/01/12 12:19:59;;;;;;;15.37;8.80;;;;;;;2.76;nan;-23893.16;5039163;28;20187;-75
2022/01/12 12:22:30;;;;;;;17.67;8.63;;;;;;;2.85;nan;-23895.59;5036813;28;20187;-75
2022/01/12 12:25:04;;;;;;;14.23;8.47;;;;;;;2.74;nan;-23892.44;5035651;28;20550;-76
2022/01/12 12:27:31;;;;;;;20.37;9.00;;;;;;;3.26;nan;-23907.13;5039331;28;20174;-76
2022/01/12 12:29:58;;;;;;;18.97;9.13;;;;;;;3.32;nan;-23909.00;5034849;28;20190;-76
2022/01/12 12:32:39;;;;;;;18.00;10.13;;;;;;;3.07;nan;-23902.00;5040145;28;20204;-75
2022/01/12 12:35:11;;;;;;;15.23;9.53;;;;;;;3.44;nan;-23912.41;5042240;28;20275;-75
2022/01/12 12:37:49;;;;;;;18.13;10.17;;;;;;;2.70;nan;-23891.31;5041943;28;20178;-75
2022/01/12 12:40:24;;;;;;;16.20;10.10;;;;;;;3.10;nan;-23902.72;5035015;28;20209;-75
2022/01/12 12:43:03;;;;;;;18.30;10.63;;;;;;;3.42;nan;-23911.84;5045034;28;20236;-77
2022/01/12 12:46:11;;;;;;;18.57;10.37;;;;;;;3.35;nan;-23909.69;5040042;28;20213;-75
2022/01/12 12:48:38;;;;;;;20.30;10.67;;;;;;;3.32;nan;-23909.00;5003411;28;20186;-75
2022/01/12 12:51:12;;;;;;;21.37;11.00;;;;;;;3.64;nan;-23917.97;5045839;28;20673;-76
2022/01/12 12:53:43;;;;;;;22.83;12.23;;;;;;;3.35;nan;-23909.69;5044164;28;20228;-76
2022/01/12 12:56:14;;;;;;;21.57;11.47;;;;;;;3.47;nan;-23913.25;5045391;28;20688;-75
2022/01/12 12:58:43;;;;;;;20.30;11.90;;;;;;;3.81;nan;-23922.66;5032124;28;20313;-78
2022/01/12 13:01:11;;;;;;;22.30;12.63;;;;;;;3.69;nan;-23919.25;5029849;28;20216;-75
2022/01/12 13:03:39;;;;;;;19.47;11.70;;;;;;;4.28;nan;-23936.06;5050025;28;20245;-75
2022/01/12 13:06:05;;;;;;;24.67;12.27;;;;;;;4.09;nan;-23930.66;5048048;28;20178;-75
2022/01/12 13:08:31;;;;;;;21.30;12.17;;;;;;;3.71;nan;-23919.81;5044394;28;20181;-75
2022/01/12 13:11:05;;;;;;;22.40;12.70;;;;;;;3.88;nan;-23924.66;5043478;28;20572;-75
2022/01/12 13:13:31;;;;;;;20.60;11.97;;;;;;;3.32;nan;-23909.00;5049712;28;20202;-75
2022/01/12 13:15:59;;;;;;;22.53;12.27;;;;;;;3.54;nan;-23915.25;5050502;28;20171;-75
2022/01/12 13:18:24;;;;;;;19.40;11.33;;;;;;;2.78;nan;-23893.72;5049377;28;20262;-75
2022/01/12 13:21:09;;;;;;;20.60;11.53;;;;;;;2.84;nan;-23895.44;5049666;28;20167;-74
2022/01/12 13:23:49;;;;;;;18.50;11.27;;;;;;;2.44;nan;-23884.16;5043099;28;20622;-76
2022/01/12 13:26:16;;;;;;;21.97;11.27;;;;;;;2.43;nan;-23883.88;5050087;28;20166;-74
2022/01/12 13:28:45;;;;;;;21.50;12.17;;;;;;;2.96;nan;-23898.72;5037694;28;20197;-76
2022/01/12 13:31:12;;;;;;;21.13;11.97;;;;;;;2.86;nan;-23896.00;5040646;28;20206;-75
2022/01/12 13:33:40;;;;;;;21.40;11.70;;;;;;;2.54;nan;-23887.03;5036015;28;21273;-77
2022/01/12 13:36:24;;;;;;;19.40;11.10;;;;;;;2.60;nan;-23888.59;5042989;28;20185;-75